Latest Weather Observations for Orange Airport

IDN60801

Issued at 12:05 am EST Sunday 6 September 2015 (issued every 30 minutes, with the page automatically refreshed every 10 minutes)

About weather observations | Map of weather stations | Latest weather observations for NSW | Other Formats
Station Details ID: 063303 Name: ORANGE AIRPORT AWS Lat: -33.38 Lon: 149.13 Height: 944.65 m
Data from the previous 72 hours. | See also: Recent months at Orange Airport
Date/Time
EST
Temp
°C
App
Temp
°C
Dew
Point
Rel
Hum
%
Delta-T
°C
Wind Press
QNH
hPa
Press
MSL
hPa
Rain
since 9 am
mm
Dir
 
Spd
km/h
Gust
km/h
Spd
kts
Gust
kts
05/11:30pm 2.8 0.7 1.8 93 0.4 ESE 2 6 1 3 1022.5 1022.1 0.0
05/11:00pm 2.3 -0.8 1.3 93 0.4 SE 7 7 4 4 1022.8 1022.3 0.0
05/10:48pm 1.7 -1.5 0.7 93 0.4 SE 7 9 4 5 1022.8 1022.3 0.0
05/10:30pm 2.6 0.9 1.6 93 0.4 CALM 0 0 0 0 1022.8 1022.3 0.0
05/10:13pm 2.7 1.0 1.7 93 0.4 CALM 0 0 0 0 1022.9 1022.4 0.0
05/10:00pm 2.7 1.0 1.7 93 0.4 CALM 0 0 0 0 1022.9 1022.4 0.0
05/09:30pm 3.0 0.2 2.0 93 0.4 SSW 6 7 3 4 1023.1 1022.7 0.0
05/09:00pm 4.0 0.8 3.0 93 0.4 WSW 9 11 5 6 1023.1 1022.7 0.0
05/08:30pm 3.9 0.7 2.9 93 0.4 SW 9 9 5 5 1022.7 1022.2 0.0
05/08:00pm 4.7 1.6 3.7 93 0.4 S 9 9 5 5 1022.3 1021.9 0.0
05/07:30pm 5.3 2.7 4.1 92 0.5 SW 7 7 4 4 1022.2 1021.8 0.0
05/07:00pm 6.6 3.8 5.1 90 0.7 SSW 9 11 5 6 1022.2 1021.8 0.0
05/06:30pm 7.4 4.4 5.9 90 0.7 SW 11 15 6 8 1022.2 1021.8 0.0
05/06:00pm 8.3 5.0 6.3 87 1.0 SSW 13 15 7 8 1021.8 1021.3 0.0
05/05:30pm 9.7 6.9 6.8 82 1.4 SW 11 15 6 8 1021.0 1020.5 0.0
05/05:00pm 10.7 6.7 6.6 76 2.0 SW 17 19 9 10 1020.8 1020.3 0.0
05/04:30pm 12.6 9.4 5.1 60 3.7 WNW 11 17 6 9 1020.8 1020.3 0.0
05/04:00pm 12.8 9.7 7.3 69 2.8 WSW 13 19 7 10 1020.6 1020.1 0.0
05/03:30pm 12.5 8.8 4.5 58 3.9 WNW 13 19 7 10 1020.6 1020.1 0.0
05/03:00pm 13.9 10.5 5.8 58 4.0 W 13 22 7 12 1020.6 1020.1 0.0
05/02:30pm 13.9 10.3 6.7 62 3.7 WNW 15 22 8 12 1020.6 1020.1 0.0
05/02:00pm 13.6 9.9 6.2 61 3.7 WNW 15 24 8 13 1020.6 1020.1 0.0
05/01:30pm 12.9 8.6 5.3 60 3.7 WNW 17 24 9 13 1020.7 1020.2 0.0
05/01:00pm 13.6 9.0 5.5 58 4.0 NW 19 28 10 15 1021.1 1020.6 0.0
05/12:30pm 12.1 7.4 5.3 63 3.3 W 19 26 10 14 1021.7 1021.2 0.0
05/12:00pm 12.8 8.4 6.4 65 3.2 WNW 19 26 10 14 1022.0 1021.5 0.0
05/11:30am 10.8 5.9 5.3 69 2.7 W 20 28 11 15 1022.3 1021.9 0.0
05/11:00am 11.6 6.9 6.1 69 2.7 WNW 20 32 11 17 1022.5 1022.1 0.0
05/10:30am 11.2 6.6 6.3 72 2.4 WNW 20 32 11 17 1022.7 1022.2 0.0
05/10:00am 11.8 7.3 7.1 73 2.4 WNW 20 30 11 16 1022.9 1022.4 0.0
05/09:30am 10.5 7.7 6.8 78 1.8 W 11 19 6 10 1023.0 1022.5 0.0
05/09:00am 9.9 7.6 7.5 85 1.2 N 9 15 5 8 1023.0 1022.5 0.2
05/08:30am 9.1 8.3 8.0 93 0.6 NNW 2 11 1 6 1023.0 1022.5 0.2
05/08:00am 7.6 6.8 6.5 93 0.5 CALM 0 0 0 0 1022.9 1022.4 0.2
05/07:33am 6.1 5.0 5.1 93 0.5 CALM 0 0 0 0 1022.4 1022.0 0.2
05/07:30am 5.8 4.6 4.8 93 0.5 CALM 0 0 0 0 1022.4 1022.0 0.2
05/07:29am 5.7 4.5 4.7 93 0.5 CALM 0 0 0 0 1022.4 1022.0 0.2
05/07:00am 2.2 0.4 1.2 93 0.4 CALM 0 6 0 3 1022.3 1021.9 0.0
05/06:30am 1.5 -1.2 0.5 93 0.4 WNW 4 6 2 3 1022.0 1021.5 0.0
05/06:00am 1.5 -0.4 0.5 93 0.4 CALM 0 0 0 0 1021.7 1021.2 0.0
05/05:30am 1.0 -1.0 0.0 93 0.4 CALM 0 0 0 0 1021.6 1021.1 0.0
05/05:00am 1.7 -0.2 0.7 93 0.4 CALM 0 0 0 0 1021.3 1020.9 0.0
05/04:39am 1.8 -0.1 0.8 93 0.4 CALM 0 0 0 0 1021.4 1021.0 0.0
05/04:30am 2.1 0.3 1.1 93 0.4 CALM 0 0 0 0 1021.3 1020.9 0.0
05/04:00am 2.9 -0.1 1.9 93 0.4 SW 7 9 4 5 1021.1 1020.6 0.0
05/03:30am 2.8 -0.6 1.8 93 0.4 WSW 9 9 5 5 1021.0 1020.5 0.0
05/03:00am 3.1 0.3 2.1 93 0.4 SW 6 7 3 4 1021.1 1020.6 0.0
05/02:30am 3.6 0.7 2.6 93 0.4 SW 7 11 4 6 1021.3 1020.9 0.0
05/02:29am 3.7 0.4 2.7 93 0.4 SW 9 11 5 6 1021.3 1020.9 0.0
05/02:00am 4.6 1.9 3.6 93 0.4 SW 7 9 4 5 1021.7 1021.2 0.0
05/01:59am 4.5 1.8 3.5 93 0.4 SW 7 9 4 5 1021.7 1021.2 0.0
05/01:30am 5.5 2.2 4.5 93 0.5 SSW 11 11 6 6 1021.9 1021.4 0.0
05/01:00am 5.0 1.6 4.0 93 0.4 SW 11 13 6 7 1022.2 1021.8 0.0
05/12:30am 5.8 2.2 4.8 93 0.5 SW 13 15 7 8 1022.3 1021.9 0.0
05/12:00am 4.5 1.4 3.5 93 0.4 SW 9 11 5 6 1022.5 1022.1 0.0
 
Date/Time
EST
Temp
°C
App
Temp
°C
Dew
Point
Rel
Hum
%
Delta-T
°C
Wind Press
QNH
hPa
Press
MSL
hPa
Rain
since 9 am
mm
Dir
 
Spd
km/h
Gust
km/h
Spd
kts
Gust
kts
04/11:30pm 5.6 1.9 4.6 93 0.5 SW 13 15 7 8 1022.9 1022.4 0.0
04/11:00pm 5.6 2.3 4.6 93 0.5 SW 11 13 6 7 1023.0 1022.5 0.0
04/10:30pm 6.3 3.1 5.3 93 0.5 SW 11 15 6 8 1023.0 1022.5 0.0
04/10:00pm 6.3 2.8 5.3 93 0.5 SW 13 15 7 8 1023.1 1022.7 0.0
04/09:30pm 6.4 3.3 5.4 93 0.5 SSW 11 13 6 7 1022.9 1022.4 0.0
04/09:00pm 7.1 4.5 6.0 93 0.5 SW 9 11 5 6 1022.8 1022.3 0.0
04/08:30pm 7.0 4.3 5.8 92 0.6 SW 9 13 5 7 1022.7 1022.2 0.0
04/08:00pm 6.9 3.1 5.8 93 0.5 SW 15 17 8 9 1022.5 1022.1 0.0
04/07:30pm 7.0 4.0 5.8 92 0.6 WSW 11 11 6 6 1022.4 1022.0 0.0
04/07:00pm 8.5 6.0 6.6 88 0.9 SW 9 11 5 6 1022.3 1021.9 0.0
04/06:30pm 8.6 6.5 6.7 88 0.9 WSW 7 7 4 4 1022.0 1021.5 0.0
04/06:00pm 8.9 6.8 6.7 86 1.1 WSW 7 9 4 5 1021.9 1021.4 0.0
04/05:30pm 10.0 7.1 6.7 80 1.6 WSW 11 13 6 7 1021.7 1021.2 0.0
04/05:00pm 11.2 7.2 6.5 73 2.3 W 17 20 9 11 1021.6 1021.1 0.0
04/04:30pm 12.3 7.9 6.4 67 3.0 WSW 19 22 10 12 1021.3 1020.9 0.0
04/04:00pm 12.8 8.5 7.0 68 2.9 WSW 19 22 10 12 1021.2 1020.7 0.0
04/03:30pm 12.9 8.4 6.9 67 3.0 WSW 20 28 11 15 1021.2 1020.7 0.0
04/03:00pm 11.8 6.9 6.9 72 2.5 WSW 22 28 12 15 1021.4 1021.0 0.0
04/02:30pm 11.6 7.8 7.7 77 2.0 SW 17 20 9 11 1021.6 1021.1 0.0
04/02:00pm 12.1 8.9 7.0 71 2.6 WNW 13 17 7 9 1021.6 1021.1 0.0
04/01:30pm 12.1 8.9 6.8 70 2.7 NNW 13 17 7 9 1021.8 1021.3 0.0
04/01:00pm 11.8 9.9 6.5 70 2.6 E 6 15 3 8 1022.0 1021.5 0.0
04/12:30pm 11.6 9.0 6.1 69 2.7 SE 9 13 5 7 1022.2 1021.8 0.0
04/12:00pm 12.8 11.0 8.1 73 2.4 NNE 7 13 4 7 1022.4 1022.0 0.0
04/11:30am 12.3 9.9 7.2 71 2.6 NE 9 15 5 8 1022.9 1022.4 0.0
04/11:00am 11.4 8.5 6.7 73 2.3 E 11 15 6 8 1023.0 1022.5 0.0
04/10:30am 10.6 7.7 6.7 77 1.9 ESE 11 20 6 11 1023.1 1022.7 0.0
04/10:00am 9.9 6.4 7.3 84 1.3 ESE 15 22 8 12 1022.9 1022.4 0.0
04/09:30am 8.9 5.8 7.4 90 0.7 SE 13 19 7 10 1022.9 1022.4 0.0
04/09:00am 7.8 4.2 6.6 92 0.6 SSE 15 19 8 10 1022.9 1022.4 2.4
04/08:30am 7.3 2.8 6.2 93 0.5 SSE 19 24 10 13 1022.8 1022.3 2.4
04/08:00am 6.8 2.2 5.7 93 0.5 S 19 26 10 14 1022.3 1021.9 2.4
04/07:30am 6.4 2.5 5.4 93 0.5 SSW 15 20 8 11 1022.0 1021.5 2.4
04/07:00am 6.2 1.9 5.2 93 0.5 SSW 17 20 9 11 1021.4 1021.0 2.4
04/06:30am 6.2 1.9 5.2 93 0.5 SSW 17 22 9 12 1021.0 1020.5 2.4
04/06:08am 6.2 1.9 5.2 93 0.5 SSW 17 24 9 13 1020.7 1020.2 2.4
04/06:00am 6.1 1.8 5.1 93 0.5 SSW 17 24 9 13 1020.5 1020.0 2.4
04/05:30am 6.3 0.7 5.3 93 0.5 S 24 32 13 17 1020.0 1019.5 2.4
04/05:00am 5.9 1.5 4.9 93 0.5 SSW 17 20 9 11 1019.9 1019.4 2.4
04/04:30am 5.4 1.3 4.4 93 0.5 S 15 17 8 9 1019.4 1018.8 2.4
04/04:03am 5.3 1.2 4.3 93 0.5 SSW 15 19 8 10 1019.0 1018.5 2.4
04/04:00am 5.2 0.7 4.2 93 0.4 SSW 17 19 9 10 1019.0 1018.5 2.4
04/03:41am 4.7 0.5 3.7 93 0.4 SSW 15 17 8 9 1018.6 1018.1 2.4
04/03:30am 4.9 0.7 3.9 93 0.4 SSW 15 19 8 10 1018.7 1018.2 2.4
04/03:07am 5.3 0.8 4.3 93 0.5 S 17 24 9 13 1018.7 1018.2 2.4
04/03:00am 5.0 0.8 4.0 93 0.4 SSW 15 17 8 9 1018.6 1018.1 2.4
04/02:30am 5.6 0.6 4.6 93 0.5 SSW 20 24 11 13 1018.7 1018.2 2.4
04/02:00am 5.7 2.0 4.7 93 0.5 SSW 13 17 7 9 1019.0 1018.5 2.4
04/01:30am 5.5 0.7 4.5 93 0.5 SSW 19 24 10 13 1018.8 1018.3 2.4
04/01:00am 5.7 1.3 4.7 93 0.5 SW 17 24 9 13 1018.6 1018.1 2.4
04/12:30am 5.9 1.0 4.9 93 0.5 SSW 20 26 11 14 1018.2 1017.6 2.4
04/12:01am 5.5 0.7 4.5 93 0.5 SSW 19 24 10 13 1018.1 1017.5 2.4
04/12:00am 5.5 0.7 4.5 93 0.5 SSW 19 24 10 13 1018.1 1017.5 2.4
 
Date/Time
EST
Temp
°C
App
Temp
°C
Dew
Point
Rel
Hum
%
Delta-T
°C
Wind Press
QNH
hPa
Press
MSL
hPa
Rain
since 9 am
mm
Dir
 
Spd
km/h
Gust
km/h
Spd
kts
Gust
kts
03/11:30pm 5.8 0.8 4.8 93 0.5 SSW 20 28 11 15 1018.1 1017.5 2.4
03/11:00pm 6.1 0.4 5.1 93 0.5 SSW 24 35 13 19 1017.3 1016.7 2.4
03/10:30pm 6.2 -0.2 5.2 93 0.5 SSW 28 37 15 20 1017.4 1016.8 2.4
03/10:00pm 6.1 0.1 5.1 93 0.5 SSW 26 37 14 20 1017.2 1016.6 2.4
03/09:30pm 6.1 -0.3 5.1 93 0.5 SSW 28 35 15 19 1016.8 1016.3 2.4
03/09:00pm 6.1 0.8 5.1 93 0.5 SSW 22 35 12 19 1016.4 1015.8 2.4
03/08:30pm 6.1 0.4 5.1 93 0.5 SSW 24 33 13 18 1016.0 1015.4 2.4
03/08:29pm 6.1 0.4 5.1 93 0.5 SSW 24 33 13 18 1016.0 1015.4 2.4
03/08:00pm 5.9 -0.2 4.9 93 0.5 SSW 26 35 14 19 1015.6 1015.0 2.2
03/07:57pm 5.9 0.2 4.9 93 0.5 SSW 24 35 13 19 1015.6 1015.0 2.2
03/07:30pm 5.7 0.0 4.7 93 0.5 SW 24 33 13 18 1015.3 1014.7 2.2
03/07:00pm 5.6 -0.5 4.6 93 0.5 SW 26 37 14 20 1014.8 1014.1 2.2
03/06:30pm 5.5 0.5 4.5 93 0.5 SW 20 28 11 15 1013.9 1013.2 2.2
03/06:00pm 5.5 0.5 4.5 93 0.5 SW 20 32 11 17 1013.3 1012.7 2.2
03/05:52pm 5.7 1.3 4.7 93 0.5 SW 17 24 9 13 1013.1 1012.5 2.2
03/05:39pm 5.8 0.8 4.8 93 0.5 WSW 20 28 11 15 1012.8 1012.1 2.0
03/05:30pm 5.9 0.6 4.9 93 0.5 WSW 22 28 12 15 1012.6 1011.9 2.0
03/05:00pm 6.1 1.4 5.1 93 0.5 W 19 26 10 14 1011.9 1011.2 2.0
03/04:30pm 6.1 0.4 5.1 93 0.5 WSW 24 33 13 18 1011.3 1010.6 2.0
03/04:19pm 6.1 -0.3 5.1 93 0.5 WSW 28 37 15 20 1010.9 1010.2 2.0
03/04:00pm 6.0 -0.1 4.8 92 0.6 WSW 26 33 14 18 1010.7 1010.0 1.8
03/03:30pm 7.2 0.8 5.2 87 0.9 WSW 28 48 15 26 1010.3 1009.6 1.4
03/03:00pm 8.0 0.9 5.5 84 1.2 WSW 32 46 17 25 1009.8 1009.1 1.4
03/02:58pm 7.9 0.7 5.0 82 1.4 WSW 32 46 17 25 1009.8 1009.1 1.4
03/02:30pm 8.1 3.1 6.4 89 0.8 SW 22 35 12 19 1009.5 1008.8 1.4
03/02:09pm 7.8 2.4 6.4 91 0.7 WSW 24 35 13 19 1009.3 1008.5 1.4
03/02:08pm 7.8 2.5 6.6 92 0.6 WSW 24 35 13 19 1009.3 1008.5 1.4
03/02:00pm 7.8 1.6 6.3 90 0.7 WSW 28 35 15 19 1009.1 1008.3 1.4
03/01:41pm 7.8 1.7 6.7 93 0.5 WSW 28 37 15 20 1009.2 1008.4 1.4
03/01:30pm 7.7 1.6 6.6 93 0.5 WSW 28 39 15 21 1009.2 1008.4 1.4
03/01:24pm 7.5 1.0 6.4 93 0.5 WSW 30 39 16 21 1009.2 1008.4 1.4
03/01:00pm 7.4 1.6 6.3 93 0.5 WSW 26 33 14 18 1009.3 1008.5 1.2
03/12:47pm 6.6 1.8 5.6 93 0.5 WSW 20 30 11 16 1009.4 1008.7 1.2
03/12:46pm 6.7 1.9 5.7 93 0.5 WSW 20 30 11 16 1009.4 1008.7 1.2
03/12:30pm 6.3 0.3 5.3 93 0.5 WSW 26 37 14 20 1009.4 1008.7 0.4
03/12:00pm 8.1 2.4 5.0 81 1.5 W 24 32 13 17 1009.4 1008.7 0.0
03/11:52am 7.8 2.5 5.1 83 1.3 W 22 28 12 15 1009.4 1008.7 0.0
03/11:30am 7.7 2.1 5.5 86 1.0 WNW 24 35 13 19 1009.5 1008.8 0.0
03/11:20am 7.5 1.2 5.5 87 0.9 WNW 28 35 15 19 1009.5 1008.8 0.0
03/11:00am 7.4 1.8 5.5 88 0.9 W 24 32 13 17 1009.5 1008.8 0.0
03/10:30am 7.9 2.2 5.0 82 1.4 W 24 35 13 19 1009.2 1008.4 0.0
03/10:00am 7.1 2.0 4.2 82 1.3 W 20 30 11 16 1008.8 1008.1 0.0
03/09:30am 7.0 2.1 4.0 81 1.4 W 19 26 10 14 1008.6 1007.9 0.0
03/09:14am 6.9 1.1 4.2 83 1.2 WNW 24 32 13 17 1008.4 1007.7 0.0
03/09:00am 7.3 3.1 5.9 91 0.7 W 17 22 9 12 1008.3 1007.5 9.8
03/08:30am 6.0 1.2 4.8 92 0.6 W 19 26 10 14 1008.1 1007.3 9.8
03/08:00am 6.1 0.8 5.1 93 0.5 WSW 22 30 12 16 1008.0 1007.2 9.8
03/07:49am 6.1 1.2 5.1 93 0.5 W 20 24 11 13 1007.9 1007.1 9.8
03/07:30am 5.9 1.1 4.7 92 0.6 WSW 19 28 10 15 1007.4 1006.6 9.8
03/07:00am 4.1 1.9 3.1 93 0.4 SW 4 6 2 3 1007.2 1006.4 9.8
03/06:30am 3.7 1.0 2.7 93 0.4 W 6 7 3 4 1006.9 1006.1 9.8
03/06:00am 4.8 3.1 3.8 93 0.4 SSW 2 7 1 4 1006.5 1005.8 9.8
03/05:30am 5.2 2.5 3.7 90 0.7 WSW 7 15 4 8 1006.2 1005.4 9.8
03/05:00am 5.8 0.9 4.1 89 0.8 WNW 19 24 10 13 1005.8 1005.0 9.8
03/04:30am 6.6 2.0 5.6 93 0.5 W 19 24 10 13 1005.8 1005.0 9.8
03/04:00am 6.9 2.7 5.8 93 0.5 WSW 17 20 9 11 1005.8 1005.0 9.8
03/03:43am 7.2 3.0 5.8 91 0.7 W 17 24 9 13 1005.8 1005.0 9.8
03/03:30am 7.6 3.9 6.5 93 0.5 W 15 24 8 13 1005.8 1005.0 9.8
03/03:00am 7.7 4.4 6.6 93 0.5 NW 13 20 7 11 1006.0 1005.2 9.8
03/02:39am 7.1 5.8 6.0 93 0.5 SW 2 7 1 4 1006.2 1005.4 9.8
03/02:30am 6.9 5.2 5.8 93 0.5 SW 4 7 2 4 1006.4 1005.6 9.6
03/02:00am 6.3 3.9 5.3 93 0.5 NNW 7 11 4 6 1006.7 1005.9 9.6
03/01:30am 6.8 3.0 5.7 93 0.5 N 15 19 8 10 1006.9 1006.1 9.6
03/01:06am 6.9 3.1 5.8 93 0.5 N 15 20 8 11 1007.3 1006.5 9.6
03/01:00am 7.0 2.8 5.9 93 0.5 NNE 17 20 9 11 1007.3 1006.5 9.6
03/12:30am 7.4 2.9 6.3 93 0.5 NNE 19 24 10 13 1008.0 1007.2 9.6
03/12:06am 8.0 3.5 6.9 93 0.5 NNW 20 32 11 17 1008.3 1007.5 9.4

Other Formats:

Comma delimited format used in spreadsheet applications
http://www.bom.gov.au/fwo/IDN60801/IDN60801.95726.axf

JavaScript Object Notation format (JSON) in row-major order
http://www.bom.gov.au/fwo/IDN60801/IDN60801.95726.json